sensor_id;sensor_type;location;lat;lon;timestamp;pressure;altitude;pressure_sealevel;temperature;humidity
77240;BME280;66258;53.170;-2.240;2023-03-13T00:01:11;97677.03;;;18.88;nan
77240;BME280;66258;53.170;-2.240;2023-03-13T00:03:39;97700.31;;;19.30;nan
77240;BME280;66258;53.170;-2.240;2023-03-13T00:06:07;97685.69;;;19.39;nan
77240;BME280;66258;53.170;-2.240;2023-03-13T00:08:34;97676.72;;;19.29;nan
77240;BME280;66258;53.170;-2.240;2023-03-13T00:11:02;97669.56;;;19.33;nan
77240;BME280;66258;53.170;-2.240;2023-03-13T00:13:32;97672.00;;;19.34;nan
77240;BME280;66258;53.170;-2.240;2023-03-13T00:16:00;97665.34;;;19.50;nan
77240;BME280;66258;53.170;-2.240;2023-03-13T00:18:28;97673.44;;;19.32;nan
77240;BME280;66258;53.170;-2.240;2023-03-13T00:20:58;97660.38;;;19.47;nan
77240;BME280;66258;53.170;-2.240;2023-03-13T00:23:25;97672.53;;;19.36;nan
77240;BME280;66258;53.170;-2.240;2023-03-13T00:25:57;97675.22;;;19.75;nan
77240;BME280;66258;53.170;-2.240;2023-03-13T00:28:27;97665.50;;;19.59;nan
77240;BME280;66258;53.170;-2.240;2023-03-13T00:31:05;97676.16;;;19.32;nan
77240;BME280;66258;53.170;-2.240;2023-03-13T00:33:33;97666.34;;;18.86;nan
77240;BME280;66258;53.170;-2.240;2023-03-13T00:36:03;97673.84;;;19.44;nan
77240;BME280;66258;53.170;-2.240;2023-03-13T00:38:32;97655.34;;;19.31;nan
77240;BME280;66258;53.170;-2.240;2023-03-13T00:41:00;97654.03;;;19.18;nan
77240;BME280;66258;53.170;-2.240;2023-03-13T00:43:29;97643.25;;;19.32;nan
77240;BME280;66258;53.170;-2.240;2023-03-13T00:45:57;97637.69;;;19.37;nan
77240;BME280;66258;53.170;-2.240;2023-03-13T00:48:27;97621.88;;;19.29;nan
77240;BME280;66258;53.170;-2.240;2023-03-13T00:50:54;97623.38;;;19.45;nan
77240;BME280;66258;53.170;-2.240;2023-03-13T00:53:22;97610.34;;;19.32;nan
77240;BME280;66258;53.170;-2.240;2023-03-13T00:55:53;97607.84;;;19.64;nan
77240;BME280;66258;53.170;-2.240;2023-03-13T00:58:24;97594.22;;;19.54;nan
77240;BME280;66258;53.170;-2.240;2023-03-13T01:00:53;97577.75;;;19.54;nan
77240;BME280;66258;53.170;-2.240;2023-03-13T01:03:25;97579.59;;;19.64;nan
77240;BME280;66258;53.170;-2.240;2023-03-13T01:05:57;97576.13;;;19.77;nan
77240;BME280;66258;53.170;-2.240;2023-03-13T01:08:26;97569.00;;;19.76;nan
77240;BME280;66258;53.170;-2.240;2023-03-13T01:10:57;97547.72;;;19.39;nan
77240;BME280;66258;53.170;-2.240;2023-03-13T01:13:26;97522.38;;;19.52;nan
77240;BME280;66258;53.170;-2.240;2023-03-13T01:15:54;97518.06;;;19.41;nan
77240;BME280;66258;53.170;-2.240;2023-03-13T01:18:22;97508.91;;;19.27;nan
77240;BME280;66258;53.170;-2.240;2023-03-13T01:20:52;97503.25;;;19.42;nan
77240;BME280;66258;53.170;-2.240;2023-03-13T01:23:19;97491.09;;;19.53;nan
77240;BME280;66258;53.170;-2.240;2023-03-13T01:26:20;97476.13;;;19.64;nan
77240;BME280;66258;53.170;-2.240;2023-03-13T01:28:49;97450.97;;;19.57;nan
77240;BME280;66258;53.170;-2.240;2023-03-13T01:31:20;97427.41;;;19.56;nan
77240;BME280;66258;53.170;-2.240;2023-03-13T01:33:49;97424.94;;;19.54;nan
77240;BME280;66258;53.170;-2.240;2023-03-13T01:36:19;97441.00;;;19.42;nan
77240;BME280;66258;53.170;-2.240;2023-03-13T01:38:48;97451.56;;;19.30;nan
77240;BME280;66258;53.170;-2.240;2023-03-13T01:41:17;97454.22;;;19.35;nan
77240;BME280;66258;53.170;-2.240;2023-03-13T01:43:45;97443.09;;;19.27;nan
77240;BME280;66258;53.170;-2.240;2023-03-13T01:46:14;97453.19;;;19.31;nan
77240;BME280;66258;53.170;-2.240;2023-03-13T01:48:49;97458.81;;;19.69;nan
77240;BME280;66258;53.170;-2.240;2023-03-13T01:51:24;97460.47;;;19.88;nan
77240;BME280;66258;53.170;-2.240;2023-03-13T01:53:58;97449.41;;;19.94;nan
77240;BME280;66258;53.170;-2.240;2023-03-13T01:56:33;97451.97;;;19.66;nan
77240;BME280;66258;53.170;-2.240;2023-03-13T01:59:04;97453.75;;;19.76;nan
77240;BME280;66258;53.170;-2.240;2023-03-13T02:01:33;97438.91;;;19.96;nan
77240;BME280;66258;53.170;-2.240;2023-03-13T02:04:01;97427.44;;;19.94;nan
77240;BME280;66258;53.170;-2.240;2023-03-13T02:06:32;97431.91;;;19.89;nan
77240;BME280;66258;53.170;-2.240;2023-03-13T02:09:04;97429.44;;;19.88;nan
77240;BME280;66258;53.170;-2.240;2023-03-13T02:11:43;97427.53;;;19.88;nan
77240;BME280;66258;53.170;-2.240;2023-03-13T02:14:26;97426.53;;;19.98;nan
77240;BME280;66258;53.170;-2.240;2023-03-13T02:16:55;97418.16;;;19.71;nan
77240;BME280;66258;53.170;-2.240;2023-03-13T02:19:27;97415.41;;;20.08;nan
77240;BME280;66258;53.170;-2.240;2023-03-13T02:22:06;97405.25;;;19.71;nan
77240;BME280;66258;53.170;-2.240;2023-03-13T02:24:47;97396.84;;;20.19;nan
77240;BME280;66258;53.170;-2.240;2023-03-13T02:27:17;97403.53;;;20.32;nan
77240;BME280;66258;53.170;-2.240;2023-03-13T02:29:45;97401.66;;;20.27;nan
77240;BME280;66258;53.170;-2.240;2023-03-13T02:32:13;97381.44;;;20.04;nan
77240;BME280;66258;53.170;-2.240;2023-03-13T02:34:43;97375.13;;;20.04;nan
77240;BME280;66258;53.170;-2.240;2023-03-13T02:37:13;97376.66;;;20.29;nan
77240;BME280;66258;53.170;-2.240;2023-03-13T02:39:45;97382.72;;;20.25;nan
77240;BME280;66258;53.170;-2.240;2023-03-13T02:42:19;97365.66;;;20.29;nan
77240;BME280;66258;53.170;-2.240;2023-03-13T02:44:49;97367.25;;;20.16;nan
77240;BME280;66258;53.170;-2.240;2023-03-13T02:47:18;97360.47;;;19.95;nan
77240;BME280;66258;53.170;-2.240;2023-03-13T02:49:46;97364.69;;;20.19;nan
77240;BME280;66258;53.170;-2.240;2023-03-13T02:52:17;97356.28;;;19.78;nan
77240;BME280;66258;53.170;-2.240;2023-03-13T02:54:50;97341.66;;;20.02;nan
77240;BME280;66258;53.170;-2.240;2023-03-13T02:57:21;97336.41;;;19.86;nan
77240;BME280;66258;53.170;-2.240;2023-03-13T02:59:49;97346.81;;;20.22;nan
77240;BME280;66258;53.170;-2.240;2023-03-13T03:02:17;97337.75;;;20.21;nan
77240;BME280;66258;53.170;-2.240;2023-03-13T03:04:46;97346.69;;;20.13;nan
77240;BME280;66258;53.170;-2.240;2023-03-13T03:07:13;97333.63;;;19.73;nan
77240;BME280;66258;53.170;-2.240;2023-03-13T03:09:42;97316.63;;;19.52;nan
77240;BME280;66258;53.170;-2.240;2023-03-13T03:12:09;97327.41;;;19.43;nan
77240;BME280;66258;53.170;-2.240;2023-03-13T05:36:47;97100.94;;;17.53;nan
77240;BME280;66258;53.170;-2.240;2023-03-13T05:39:15;97084.78;;;17.28;nan
77240;BME280;66258;53.170;-2.240;2023-03-13T05:41:43;97067.25;;;17.34;nan
77240;BME280;66258;53.170;-2.240;2023-03-13T05:44:10;97067.00;;;17.01;nan
77240;BME280;66258;53.170;-2.240;2023-03-13T05:46:38;97069.16;;;16.65;nan
77240;BME280;66258;53.170;-2.240;2023-03-13T05:49:08;97037.78;;;16.19;nan
77240;BME280;66258;53.170;-2.240;2023-03-13T05:51:35;97046.19;;;16.71;nan
77240;BME280;66258;53.170;-2.240;2023-03-13T05:54:05;97038.56;;;15.70;nan
77240;BME280;66258;53.170;-2.240;2023-03-13T05:56:32;97027.50;;;15.16;nan
77240;BME280;66258;53.170;-2.240;2023-03-13T05:58:59;97025.47;;;15.62;nan
77240;BME280;66258;53.170;-2.240;2023-03-13T06:01:27;97018.88;;;16.27;nan
77240;BME280;66258;53.170;-2.240;2023-03-13T06:03:55;97013.84;;;16.44;nan
77240;BME280;66258;53.170;-2.240;2023-03-13T06:06:22;97022.78;;;16.60;nan
77240;BME280;66258;53.170;-2.240;2023-03-13T06:08:51;97029.69;;;17.15;nan
77240;BME280;66258;53.170;-2.240;2023-03-13T06:11:21;97029.00;;;17.29;nan
77240;BME280;66258;53.170;-2.240;2023-03-13T06:13:50;97037.50;;;17.27;nan
77240;BME280;66258;53.170;-2.240;2023-03-13T06:16:18;97028.13;;;16.80;nan
77240;BME280;66258;53.170;-2.240;2023-03-13T06:18:45;97026.41;;;16.84;nan
77240;BME280;66258;53.170;-2.240;2023-03-13T06:21:13;97041.03;;;17.28;nan
77240;BME280;66258;53.170;-2.240;2023-03-13T06:23:40;97047.78;;;17.40;nan
77240;BME280;66258;53.170;-2.240;2023-03-13T06:26:07;97040.63;;;17.15;nan
77240;BME280;66258;53.170;-2.240;2023-03-13T06:28:36;97040.28;;;16.54;nan
77240;BME280;66258;53.170;-2.240;2023-03-13T06:31:06;97024.78;;;16.44;nan
77240;BME280;66258;53.170;-2.240;2023-03-13T06:33:34;97024.41;;;16.95;nan
77240;BME280;66258;53.170;-2.240;2023-03-13T06:36:02;97035.56;;;17.04;nan
77240;BME280;66258;53.170;-2.240;2023-03-13T06:38:30;97035.91;;;17.50;nan
77240;BME280;66258;53.170;-2.240;2023-03-13T06:40:57;97035.06;;;17.26;nan
77240;BME280;66258;53.170;-2.240;2023-03-13T06:43:24;97027.56;;;17.65;nan
77240;BME280;66258;53.170;-2.240;2023-03-13T06:45:53;97021.25;;;17.89;nan
77240;BME280;66258;53.170;-2.240;2023-03-13T06:48:20;97019.16;;;17.57;nan
77240;BME280;66258;53.170;-2.240;2023-03-13T06:50:48;97019.84;;;17.43;nan
77240;BME280;66258;53.170;-2.240;2023-03-13T06:53:16;97031.97;;;17.85;nan
77240;BME280;66258;53.170;-2.240;2023-03-13T06:55:43;97028.69;;;17.64;nan
77240;BME280;66258;53.170;-2.240;2023-03-13T06:58:10;97022.09;;;17.65;nan
77240;BME280;66258;53.170;-2.240;2023-03-13T07:00:57;97030.63;;;18.06;nan
77240;BME280;66258;53.170;-2.240;2023-03-13T07:03:25;97025.28;;;18.15;nan
77240;BME280;66258;53.170;-2.240;2023-03-13T07:05:55;97026.25;;;17.58;nan
77240;BME280;66258;53.170;-2.240;2023-03-13T07:08:22;97015.88;;;17.31;nan
77240;BME280;66258;53.170;-2.240;2023-03-13T07:10:49;97005.44;;;17.62;nan
77240;BME280;66258;53.170;-2.240;2023-03-13T07:13:17;96988.19;;;17.61;nan
77240;BME280;66258;53.170;-2.240;2023-03-13T07:15:45;96986.97;;;17.48;nan
77240;BME280;66258;53.170;-2.240;2023-03-13T07:18:13;96975.03;;;17.15;nan
77240;BME280;66258;53.170;-2.240;2023-03-13T07:20:41;96977.78;;;17.15;nan
77240;BME280;66258;53.170;-2.240;2023-03-13T07:23:08;96979.44;;;17.64;nan
77240;BME280;66258;53.170;-2.240;2023-03-13T07:25:36;96978.41;;;17.07;nan
77240;BME280;66258;53.170;-2.240;2023-03-13T07:28:03;96975.75;;;17.02;nan
77240;BME280;66258;53.170;-2.240;2023-03-13T07:30:32;96969.75;;;17.00;nan
77240;BME280;66258;53.170;-2.240;2023-03-13T07:33:00;96977.50;;;16.88;nan
77240;BME280;66258;53.170;-2.240;2023-03-13T07:35:29;96971.75;;;16.56;nan
77240;BME280;66258;53.170;-2.240;2023-03-13T07:37:57;96977.81;;;16.47;nan
77240;BME280;66258;53.170;-2.240;2023-03-13T07:40:25;96978.53;;;16.63;nan
77240;BME280;66258;53.170;-2.240;2023-03-13T07:42:52;96988.53;;;17.31;nan
77240;BME280;66258;53.170;-2.240;2023-03-13T07:45:20;96987.13;;;17.09;nan
77240;BME280;66258;53.170;-2.240;2023-03-13T07:47:48;96982.63;;;17.71;nan
77240;BME280;66258;53.170;-2.240;2023-03-13T07:50:16;96978.81;;;17.91;nan
77240;BME280;66258;53.170;-2.240;2023-03-13T07:52:45;96980.31;;;18.21;nan
77240;BME280;66258;53.170;-2.240;2023-03-13T07:55:12;96976.97;;;17.63;nan
77240;BME280;66258;53.170;-2.240;2023-03-13T07:57:43;96980.00;;;17.37;nan
77240;BME280;66258;53.170;-2.240;2023-03-13T08:00:11;96980.53;;;18.06;nan
77240;BME280;66258;53.170;-2.240;2023-03-13T08:02:39;96975.44;;;17.99;nan
77240;BME280;66258;53.170;-2.240;2023-03-13T08:05:07;96959.59;;;18.15;nan
77240;BME280;66258;53.170;-2.240;2023-03-13T08:07:35;96957.50;;;18.44;nan
77240;BME280;66258;53.170;-2.240;2023-03-13T08:10:05;96955.50;;;17.75;nan
77240;BME280;66258;53.170;-2.240;2023-03-13T08:12:34;96955.41;;;18.04;nan
77240;BME280;66258;53.170;-2.240;2023-03-13T08:15:01;96957.97;;;18.14;nan
77240;BME280;66258;53.170;-2.240;2023-03-13T08:17:28;96960.63;;;18.19;nan
77240;BME280;66258;53.170;-2.240;2023-03-13T08:19:56;96961.22;;;17.78;nan
77240;BME280;66258;53.170;-2.240;2023-03-13T08:22:22;96966.69;;;17.78;nan
77240;BME280;66258;53.170;-2.240;2023-03-13T08:24:50;96975.47;;;18.50;nan
77240;BME280;66258;53.170;-2.240;2023-03-13T08:27:19;96968.63;;;17.97;nan
77240;BME280;66258;53.170;-2.240;2023-03-13T08:29:46;96984.88;;;17.88;nan
77240;BME280;66258;53.170;-2.240;2023-03-13T08:32:13;96978.59;;;18.44;nan
77240;BME280;66258;53.170;-2.240;2023-03-13T08:34:41;96986.84;;;18.63;nan
77240;BME280;66258;53.170;-2.240;2023-03-13T08:37:14;96975.66;;;18.22;nan
77240;BME280;66258;53.170;-2.240;2023-03-13T08:39:41;96995.09;;;19.09;nan
77240;BME280;66258;53.170;-2.240;2023-03-13T08:42:10;96989.34;;;18.92;nan
77240;BME280;66258;53.170;-2.240;2023-03-13T08:44:40;96987.41;;;19.38;nan
77240;BME280;66258;53.170;-2.240;2023-03-13T08:47:07;96982.50;;;19.21;nan
77240;BME280;66258;53.170;-2.240;2023-03-13T08:49:35;96977.03;;;19.21;nan
77240;BME280;66258;53.170;-2.240;2023-03-13T08:52:03;96974.75;;;18.96;nan
77240;BME280;66258;53.170;-2.240;2023-03-13T08:54:31;96980.97;;;18.69;nan
77240;BME280;66258;53.170;-2.240;2023-03-13T08:56:58;96962.50;;;19.07;nan
77240;BME280;66258;53.170;-2.240;2023-03-13T08:59:26;96958.75;;;18.52;nan
77240;BME280;66258;53.170;-2.240;2023-03-13T09:01:55;96960.06;;;18.73;nan
77240;BME280;66258;53.170;-2.240;2023-03-13T09:04:22;96949.72;;;18.70;nan
77240;BME280;66258;53.170;-2.240;2023-03-13T09:06:49;96956.47;;;18.92;nan
77240;BME280;66258;53.170;-2.240;2023-03-13T09:09:17;96950.75;;;18.74;nan
77240;BME280;66258;53.170;-2.240;2023-03-13T09:11:44;96953.88;;;18.49;nan
77240;BME280;66258;53.170;-2.240;2023-03-13T09:14:11;96958.84;;;18.66;nan
77240;BME280;66258;53.170;-2.240;2023-03-13T09:16:38;96955.97;;;18.38;nan
77240;BME280;66258;53.170;-2.240;2023-03-13T09:19:07;96961.78;;;18.50;nan
77240;BME280;66258;53.170;-2.240;2023-03-13T09:21:35;96958.72;;;18.71;nan
77240;BME280;66258;53.170;-2.240;2023-03-13T09:24:02;96958.50;;;18.16;nan
77240;BME280;66258;53.170;-2.240;2023-03-13T09:26:30;96960.25;;;18.44;nan
77240;BME280;66258;53.170;-2.240;2023-03-13T09:28:57;96961.81;;;18.13;nan
77240;BME280;66258;53.170;-2.240;2023-03-13T09:31:28;96963.03;;;18.07;nan
77240;BME280;66258;53.170;-2.240;2023-03-13T09:33:56;96962.31;;;17.77;nan
77240;BME280;66258;53.170;-2.240;2023-03-13T09:36:25;96956.44;;;17.41;nan
77240;BME280;66258;53.170;-2.240;2023-03-13T09:38:54;96968.97;;;17.90;nan
77240;BME280;66258;53.170;-2.240;2023-03-13T09:41:26;96967.91;;;18.29;nan
77240;BME280;66258;53.170;-2.240;2023-03-13T09:44:01;96965.28;;;18.18;nan
77240;BME280;66258;53.170;-2.240;2023-03-13T09:46:36;96953.53;;;18.18;nan
77240;BME280;66258;53.170;-2.240;2023-03-13T09:49:12;96963.91;;;18.21;nan
77240;BME280;66258;53.170;-2.240;2023-03-13T09:51:48;96953.81;;;18.16;nan
77240;BME280;66258;53.170;-2.240;2023-03-13T09:54:24;96974.25;;;18.05;nan
77240;BME280;66258;53.170;-2.240;2023-03-13T09:56:55;96954.84;;;17.64;nan
77240;BME280;66258;53.170;-2.240;2023-03-13T09:59:31;96959.00;;;17.80;nan
77240;BME280;66258;53.170;-2.240;2023-03-13T10:02:03;96948.81;;;18.05;nan
77240;BME280;66258;53.170;-2.240;2023-03-13T10:04:37;96954.53;;;17.66;nan
77240;BME280;66258;53.170;-2.240;2023-03-13T10:07:11;96964.41;;;18.04;nan
77240;BME280;66258;53.170;-2.240;2023-03-13T10:09:38;96966.63;;;17.83;nan
77240;BME280;66258;53.170;-2.240;2023-03-13T10:12:12;96949.63;;;18.05;nan
77240;BME280;66258;53.170;-2.240;2023-03-13T10:14:45;96962.41;;;17.91;nan
77240;BME280;66258;53.170;-2.240;2023-03-13T10:17:26;96955.47;;;17.99;nan
77240;BME280;66258;53.170;-2.240;2023-03-13T10:20:00;96978.38;;;17.84;nan
77240;BME280;66258;53.170;-2.240;2023-03-13T10:22:30;96942.69;;;16.70;nan
77240;BME280;66258;53.170;-2.240;2023-03-13T10:25:02;96951.28;;;17.40;nan
77240;BME280;66258;53.170;-2.240;2023-03-13T10:27:31;96957.78;;;17.68;nan
77240;BME280;66258;53.170;-2.240;2023-03-13T10:30:19;96962.63;;;17.95;nan
77240;BME280;66258;53.170;-2.240;2023-03-13T10:32:48;96951.81;;;17.66;nan
77240;BME280;66258;53.170;-2.240;2023-03-13T10:35:20;96962.72;;;16.89;nan
77240;BME280;66258;53.170;-2.240;2023-03-13T10:38:00;96978.94;;;17.57;nan
77240;BME280;66258;53.170;-2.240;2023-03-13T10:40:29;96971.94;;;17.94;nan
77240;BME280;66258;53.170;-2.240;2023-03-13T10:43:00;96962.31;;;17.30;nan
77240;BME280;66258;53.170;-2.240;2023-03-13T10:45:32;96973.59;;;17.71;nan
77240;BME280;66258;53.170;-2.240;2023-03-13T10:48:02;96981.78;;;17.95;nan
77240;BME280;66258;53.170;-2.240;2023-03-13T10:50:34;96984.41;;;17.57;nan
77240;BME280;66258;53.170;-2.240;2023-03-13T10:53:20;96987.28;;;17.71;nan
77240;BME280;66258;53.170;-2.240;2023-03-13T10:55:51;96980.25;;;17.65;nan
77240;BME280;66258;53.170;-2.240;2023-03-13T10:58:23;96987.69;;;17.83;nan
77240;BME280;66258;53.170;-2.240;2023-03-13T11:00:51;96977.53;;;17.65;nan
77240;BME280;66258;53.170;-2.240;2023-03-13T11:03:30;96972.50;;;16.95;nan
77240;BME280;66258;53.170;-2.240;2023-03-13T11:05:59;96987.41;;;17.84;nan
77240;BME280;66258;53.170;-2.240;2023-03-13T11:08:33;96980.75;;;17.67;nan
77240;BME280;66258;53.170;-2.240;2023-03-13T11:11:02;97001.97;;;18.55;nan
77240;BME280;66258;53.170;-2.240;2023-03-13T11:13:33;96983.69;;;17.94;nan
77240;BME280;66258;53.170;-2.240;2023-03-13T11:16:18;97001.91;;;17.85;nan
77240;BME280;66258;53.170;-2.240;2023-03-13T11:19:16;97000.34;;;18.35;nan
77240;BME280;66258;53.170;-2.240;2023-03-13T11:21:56;96988.81;;;18.01;nan
77240;BME280;66258;53.170;-2.240;2023-03-13T11:24:31;97002.81;;;18.37;nan
77240;BME280;66258;53.170;-2.240;2023-03-13T11:27:09;96989.97;;;17.95;nan
77240;BME280;66258;53.170;-2.240;2023-03-13T11:29:46;97016.81;;;17.93;nan
77240;BME280;66258;53.170;-2.240;2023-03-13T11:32:21;97022.66;;;17.62;nan
77240;BME280;66258;53.170;-2.240;2023-03-13T11:34:53;97014.31;;;17.96;nan
77240;BME280;66258;53.170;-2.240;2023-03-13T11:37:23;97017.81;;;17.54;nan
77240;BME280;66258;53.170;-2.240;2023-03-13T11:39:59;97026.63;;;18.17;nan
77240;BME280;66258;53.170;-2.240;2023-03-13T11:42:41;97020.56;;;18.20;nan
77240;BME280;66258;53.170;-2.240;2023-03-13T11:45:26;97039.72;;;18.02;nan
77240;BME280;66258;53.170;-2.240;2023-03-13T11:47:59;97017.53;;;17.79;nan
77240;BME280;66258;53.170;-2.240;2023-03-13T11:50:36;97018.50;;;17.41;nan
77240;BME280;66258;53.170;-2.240;2023-03-13T11:53:21;97018.03;;;17.34;nan
77240;BME280;66258;53.170;-2.240;2023-03-13T11:56:01;97031.09;;;17.90;nan
77240;BME280;66258;53.170;-2.240;2023-03-13T11:59:02;97027.63;;;17.31;nan
77240;BME280;66258;53.170;-2.240;2023-03-13T12:01:35;97031.97;;;17.85;nan
77240;BME280;66258;53.170;-2.240;2023-03-13T12:04:11;97020.66;;;17.44;nan
77240;BME280;66258;53.170;-2.240;2023-03-13T12:06:43;97025.28;;;17.72;nan
77240;BME280;66258;53.170;-2.240;2023-03-13T12:09:15;97020.78;;;17.58;nan
77240;BME280;66258;53.170;-2.240;2023-03-13T12:11:48;97028.69;;;17.35;nan
77240;BME280;66258;53.170;-2.240;2023-03-13T12:14:24;97023.47;;;17.63;nan
77240;BME280;66258;53.170;-2.240;2023-03-13T12:16:55;97031.84;;;17.18;nan
77240;BME280;66258;53.170;-2.240;2023-03-13T12:19:29;97026.59;;;17.51;nan
77240;BME280;66258;53.170;-2.240;2023-03-13T12:22:07;97012.06;;;17.03;nan
77240;BME280;66258;53.170;-2.240;2023-03-13T12:24:41;97032.25;;;17.60;nan
77240;BME280;66258;53.170;-2.240;2023-03-13T12:27:17;97033.50;;;17.72;nan
77240;BME280;66258;53.170;-2.240;2023-03-13T12:29:52;97023.94;;;17.70;nan
77240;BME280;66258;53.170;-2.240;2023-03-13T12:32:26;97020.16;;;17.13;nan
77240;BME280;66258;53.170;-2.240;2023-03-13T12:34:59;97008.38;;;17.17;nan
77240;BME280;66258;53.170;-2.240;2023-03-13T12:37:38;97023.16;;;17.40;nan
77240;BME280;66258;53.170;-2.240;2023-03-13T12:40:15;97026.13;;;17.92;nan
77240;BME280;66258;53.170;-2.240;2023-03-13T12:42:52;97016.03;;;17.68;nan
77240;BME280;66258;53.170;-2.240;2023-03-13T12:45:23;97010.06;;;17.37;nan
77240;BME280;66258;53.170;-2.240;2023-03-13T12:48:18;96994.97;;;17.45;nan
77240;BME280;66258;53.170;-2.240;2023-03-13T12:51:00;97011.66;;;17.43;nan
77240;BME280;66258;53.170;-2.240;2023-03-13T12:54:03;96999.06;;;16.90;nan
77240;BME280;66258;53.170;-2.240;2023-03-13T12:56:54;96999.06;;;16.90;nan
77240;BME280;66258;53.170;-2.240;2023-03-13T12:59:31;97005.53;;;16.99;nan
77240;BME280;66258;53.170;-2.240;2023-03-13T13:02:13;96994.34;;;17.00;nan
77240;BME280;66258;53.170;-2.240;2023-03-13T13:04:45;97001.16;;;17.50;nan
77240;BME280;66258;53.170;-2.240;2023-03-13T13:07:22;96998.31;;;17.37;nan
77240;BME280;66258;53.170;-2.240;2023-03-13T13:10:12;96991.81;;;16.36;nan
77240;BME280;66258;53.170;-2.240;2023-03-13T13:12:44;97001.44;;;17.01;nan
77240;BME280;66258;53.170;-2.240;2023-03-13T13:15:21;96999.94;;;17.38;nan
77240;BME280;66258;53.170;-2.240;2023-03-13T13:18:02;96986.94;;;17.77;nan
77240;BME280;66258;53.170;-2.240;2023-03-13T13:20:36;96990.47;;;17.54;nan
77240;BME280;66258;53.170;-2.240;2023-03-13T13:23:22;96989.34;;;17.55;nan
77240;BME280;66258;53.170;-2.240;2023-03-13T13:25:51;96995.34;;;18.05;nan
77240;BME280;66258;53.170;-2.240;2023-03-13T13:28:32;96995.16;;;17.96;nan
77240;BME280;66258;53.170;-2.240;2023-03-13T13:31:01;96981.13;;;17.84;nan
77240;BME280;66258;53.170;-2.240;2023-03-13T13:33:48;96984.91;;;18.07;nan
77240;BME280;66258;53.170;-2.240;2023-03-13T13:36:30;96993.94;;;18.64;nan
77240;BME280;66258;53.170;-2.240;2023-03-13T13:39:36;96986.34;;;18.55;nan
77240;BME280;66258;53.170;-2.240;2023-03-13T13:42:36;96983.66;;;17.75;nan
77240;BME280;66258;53.170;-2.240;2023-03-13T13:45:20;96991.03;;;17.99;nan
77240;BME280;66258;53.170;-2.240;2023-03-13T13:47:50;96974.91;;;17.97;nan
77240;BME280;66258;53.170;-2.240;2023-03-13T13:50:19;96980.41;;;17.73;nan
77240;BME280;66258;53.170;-2.240;2023-03-13T13:52:47;96976.66;;;17.88;nan
77240;BME280;66258;53.170;-2.240;2023-03-13T13:55:41;96975.66;;;18.03;nan
77240;BME280;66258;53.170;-2.240;2023-03-13T13:58:16;96971.56;;;17.81;nan
77240;BME280;66258;53.170;-2.240;2023-03-13T14:00:45;96971.09;;;17.74;nan
77240;BME280;66258;53.170;-2.240;2023-03-13T14:03:20;96977.63;;;18.53;nan
77240;BME280;66258;53.170;-2.240;2023-03-13T14:05:50;96969.19;;;17.94;nan
77240;BME280;66258;53.170;-2.240;2023-03-13T14:08:20;96970.81;;;17.76;nan
77240;BME280;66258;53.170;-2.240;2023-03-13T14:10:53;96969.50;;;18.11;nan
77240;BME280;66258;53.170;-2.240;2023-03-13T14:13:29;96972.97;;;18.54;nan
77240;BME280;66258;53.170;-2.240;2023-03-13T14:15:56;96969.88;;;18.04;nan
77240;BME280;66258;53.170;-2.240;2023-03-13T14:18:27;96981.72;;;18.00;nan
77240;BME280;66258;53.170;-2.240;2023-03-13T14:20:59;96976.63;;;17.69;nan
77240;BME280;66258;53.170;-2.240;2023-03-13T14:23:36;96979.75;;;17.10;nan
77240;BME280;66258;53.170;-2.240;2023-03-13T14:26:13;96968.03;;;18.18;nan
77240;BME280;66258;53.170;-2.240;2023-03-13T14:28:42;96986.56;;;17.60;nan
77240;BME280;66258;53.170;-2.240;2023-03-13T14:31:20;96977.88;;;17.29;nan
77240;BME280;66258;53.170;-2.240;2023-03-13T14:33:54;96976.91;;;17.20;nan
77240;BME280;66258;53.170;-2.240;2023-03-13T14:36:23;96983.41;;;17.48;nan
77240;BME280;66258;53.170;-2.240;2023-03-13T14:38:51;96960.03;;;16.84;nan
77240;BME280;66258;53.170;-2.240;2023-03-13T14:41:23;96947.97;;;16.22;nan
77240;BME280;66258;53.170;-2.240;2023-03-13T14:43:53;96964.94;;;17.16;nan
77240;BME280;66258;53.170;-2.240;2023-03-13T14:46:28;96968.72;;;16.57;nan
77240;BME280;66258;53.170;-2.240;2023-03-13T14:49:05;96972.81;;;16.94;nan
77240;BME280;66258;53.170;-2.240;2023-03-13T14:51:37;96965.50;;;16.84;nan
77240;BME280;66258;53.170;-2.240;2023-03-13T14:54:05;96973.38;;;16.91;nan
77240;BME280;66258;53.170;-2.240;2023-03-13T14:56:33;96952.63;;;16.90;nan
77240;BME280;66258;53.170;-2.240;2023-03-13T14:59:15;96977.59;;;17.31;nan
77240;BME280;66258;53.170;-2.240;2023-03-13T15:01:43;96965.38;;;16.99;nan
77240;BME280;66258;53.170;-2.240;2023-03-13T15:04:12;96964.66;;;16.89;nan
77240;BME280;66258;53.170;-2.240;2023-03-13T15:06:39;96973.16;;;17.11;nan
77240;BME280;66258;53.170;-2.240;2023-03-13T15:09:18;96966.34;;;17.37;nan
77240;BME280;66258;53.170;-2.240;2023-03-13T15:11:57;96972.03;;;17.17;nan
77240;BME280;66258;53.170;-2.240;2023-03-13T15:14:32;96972.63;;;17.09;nan
77240;BME280;66258;53.170;-2.240;2023-03-13T15:17:00;96962.66;;;16.99;nan
77240;BME280;66258;53.170;-2.240;2023-03-13T15:19:29;96967.75;;;17.06;nan
77240;BME280;66258;53.170;-2.240;2023-03-13T15:21:56;96976.91;;;17.20;nan
77240;BME280;66258;53.170;-2.240;2023-03-13T15:24:24;96970.81;;;16.70;nan
77240;BME280;66258;53.170;-2.240;2023-03-13T15:26:52;96964.22;;;17.29;nan
77240;BME280;66258;53.170;-2.240;2023-03-13T15:29:20;96979.13;;;17.18;nan
77240;BME280;66258;53.170;-2.240;2023-03-13T15:31:47;96977.59;;;17.31;nan
77240;BME280;66258;53.170;-2.240;2023-03-13T15:34:14;96973.25;;;17.77;nan
77240;BME280;66258;53.170;-2.240;2023-03-13T15:36:43;96967.84;;;17.25;nan
77240;BME280;66258;53.170;-2.240;2023-03-13T15:39:14;96966.47;;;17.46;nan
77240;BME280;66258;53.170;-2.240;2023-03-13T15:41:43;96974.19;;;17.68;nan
77240;BME280;66258;53.170;-2.240;2023-03-13T15:44:11;96976.72;;;17.64;nan
77240;BME280;66258;53.170;-2.240;2023-03-13T15:46:38;96964.47;;;17.80;nan
77240;BME280;66258;53.170;-2.240;2023-03-13T15:49:05;96961.38;;;17.87;nan
77240;BME280;66258;53.170;-2.240;2023-03-13T15:51:33;96962.91;;;17.93;nan
77240;BME280;66258;53.170;-2.240;2023-03-13T15:54:02;96960.47;;;17.92;nan
77240;BME280;66258;53.170;-2.240;2023-03-13T15:56:33;96955.69;;;17.83;nan